メインページ
METAR-TAF:

METAR-TAF

空港 :

ホルヘ・チャベス国際空港

リマ, ペルー

緯度: 12-00S, 経度: 077-07W, 海抜: 12m

現時点の気象観測

当レポートは17分前の23:00(UTC)に作成
の風 8kt
気温 20°C
湿度 78%
気圧 1012 hPa
視程10km以上
高度1900ftの千切れ雲あり

METAR: SPJC 132300Z 19008KT 9999 BKN019 20/16 Q1012 NOSIG RMK BIRD HAZARD RWY15 PP000

時間: 18:17 (23:17 UTC)

予報

当レポートは6時間17分前の17:00(UTC)に作成
予報は13日の 18時(UTC)から 14日の 18時(UTC)まで有効
西の風 7kt
視程10km以上
高度2500ftの曇り
13日の 20時(UTC)から 13日の 22時(UTC)まで徐々に
の風 10kt
14日の 0600時(UTC)から
の風 6kt
視程: 8000m
高度1700ftの曇り
14日の 09時(UTC)から 14日の 12時(UTC)まで一時的に
視程: 5000m
高度1200ftの曇り
14日の 1400時(UTC)から
西/北西の風 6kt
視程10km以上
高度2000ftの曇り

TAF: SPJC 131700Z 1318/1418 28007KT 9999 OVC025 TX23/1319Z TN18/1410Z BECMG 1320/1322 19010KT FM140600 17006KT 8000 OVC017 TEMPO 1409/1412 5000 BR OVC012 FM141400 30006KT 9999 OVC020

4,000以上の空港の気象観測と天気予報(METAR報とTAF報)

利用可能な観測所は地図上に黄色い丸と赤い丸で示す。

丸の上にカーソルを重ねると観測所名を参照できる。

次にクリックすると気象観測と天気予報を参照できる。

マップの切り替え:黒色「×」印の緑ボタンをクリックして拡大、「-」印の緑ボタンをクリックして縮小、緑色の三角印をクリックして隣りの地図に切り替え


METAR-TAF: